Stephen, Minnesota
Current Conditions -  °F | °C
As of 2:33 AM on Friday 28 Nov 2014 (Local Time) from KHCO Reporting Station
Overcast Overcast  
Wind Chill:   Ceiling: 4200
Heat Index: 10°   Visibility: 10mi
Dew Point:   Wind: 6mph
Humidity: 73%   Direction: 110°ESE
Pressure: 30.08"   Gusts: NA
Location:  48.45°N, 96.87°W
Report Text: KHCO 280833Z AUTO 11005KT 10SM OVC042 M12/M16 A3008 RMK AO2
Loading
Personal Weather Stations






























Interactive Weather Map New forecast layout! Learn more

10-Day Weather Forecast

Advertisements
Track Severe Weather on mobile